sensor_id;sensor_type;location;lat;lon;timestamp;pressure;altitude;pressure_sealevel;temperature;humidity
58598;BME280;60319;46.908;16.848;2022-08-19T00:04:44;98940.22;;;19.27;99.04
58598;BME280;60319;46.908;16.848;2022-08-19T00:09:48;98928.81;;;19.25;98.89
58598;BME280;60319;46.908;16.848;2022-08-19T00:14:48;98912.06;;;19.23;99.69
58598;BME280;60319;46.908;16.848;2022-08-19T00:19:49;98918.31;;;19.17;100.00
58598;BME280;60319;46.908;16.848;2022-08-19T00:24:49;98915.59;;;19.17;100.00
58598;BME280;60319;46.908;16.848;2022-08-19T00:29:50;98890.97;;;19.13;100.00
58598;BME280;60319;46.908;16.848;2022-08-19T00:34:51;98884.75;;;19.06;100.00
58598;BME280;60319;46.908;16.848;2022-08-19T00:39:53;98875.66;;;19.07;100.00
58598;BME280;60319;46.908;16.848;2022-08-19T00:44:54;98871.50;;;18.97;100.00
58598;BME280;60319;46.908;16.848;2022-08-19T00:49:56;98881.88;;;19.00;100.00
58598;BME280;60319;46.908;16.848;2022-08-19T00:54:59;98893.06;;;18.97;100.00
58598;BME280;60319;46.908;16.848;2022-08-19T01:00:03;98868.66;;;18.92;100.00
58598;BME280;60319;46.908;16.848;2022-08-19T01:05:09;98855.00;;;18.87;100.00
58598;BME280;60319;46.908;16.848;2022-08-19T01:10:14;98838.22;;;18.85;100.00
58598;BME280;60319;46.908;16.848;2022-08-19T01:15:19;98852.97;;;18.82;100.00
58598;BME280;60319;46.908;16.848;2022-08-19T01:20:23;98859.38;;;18.81;100.00
58598;BME280;60319;46.908;16.848;2022-08-19T01:25:29;98865.81;;;18.80;100.00
58598;BME280;60319;46.908;16.848;2022-08-19T01:30:33;98860.66;;;18.72;100.00
58598;BME280;60319;46.908;16.848;2022-08-19T01:35:35;98869.59;;;18.66;100.00
58598;BME280;60319;46.908;16.848;2022-08-19T01:40:38;98887.66;;;18.58;100.00
58598;BME280;60319;46.908;16.848;2022-08-19T01:45:39;98908.34;;;18.58;100.00
58598;BME280;60319;46.908;16.848;2022-08-19T01:50:40;98919.31;;;18.63;100.00
58598;BME280;60319;46.908;16.848;2022-08-19T01:55:42;98911.25;;;18.63;100.00
58598;BME280;60319;46.908;16.848;2022-08-19T02:00:43;98922.22;;;18.61;100.00
58598;BME280;60319;46.908;16.848;2022-08-19T02:05:44;98906.31;;;18.53;100.00
58598;BME280;60319;46.908;16.848;2022-08-19T02:10:45;98901.72;;;18.54;100.00
58598;BME280;60319;46.908;16.848;2022-08-19T02:15:46;98894.53;;;18.47;100.00
58598;BME280;60319;46.908;16.848;2022-08-19T02:20:47;98893.69;;;18.47;100.00
58598;BME280;60319;46.908;16.848;2022-08-19T02:25:47;98869.03;;;18.50;100.00
58598;BME280;60319;46.908;16.848;2022-08-19T02:30:48;98848.09;;;18.52;100.00
58598;BME280;60319;46.908;16.848;2022-08-19T02:35:48;98839.44;;;18.50;100.00
58598;BME280;60319;46.908;16.848;2022-08-19T02:40:51;98846.06;;;18.47;100.00
58598;BME280;60319;46.908;16.848;2022-08-19T02:45:52;98838.00;;;18.47;100.00
58598;BME280;60319;46.908;16.848;2022-08-19T02:50:53;98830.94;;;18.46;100.00
58598;BME280;60319;46.908;16.848;2022-08-19T02:55:57;98828.91;;;18.42;100.00
58598;BME280;60319;46.908;16.848;2022-08-19T03:00:57;98823.94;;;18.39;100.00
58598;BME280;60319;46.908;16.848;2022-08-19T03:06:14;98816.88;;;18.38;100.00
58598;BME280;60319;46.908;16.848;2022-08-19T03:16:15;98821.66;;;18.35;100.00
58598;BME280;60319;46.908;16.848;2022-08-19T03:21:21;98824.97;;;18.38;100.00
58598;BME280;60319;46.908;16.848;2022-08-19T03:26:22;98829.91;;;18.41;100.00
58598;BME280;60319;46.908;16.848;2022-08-19T03:31:23;98839.66;;;18.42;100.00
58598;BME280;60319;46.908;16.848;2022-08-19T03:36:25;98840.69;;;18.47;100.00
58598;BME280;60319;46.908;16.848;2022-08-19T03:41:30;98841.47;;;18.55;100.00
58598;BME280;60319;46.908;16.848;2022-08-19T03:46:32;98838.16;;;18.53;100.00
58598;BME280;60319;46.908;16.848;2022-08-19T03:51:36;98845.41;;;18.59;100.00
58598;BME280;60319;46.908;16.848;2022-08-19T03:56:39;98834.59;;;18.66;100.00
58598;BME280;60319;46.908;16.848;2022-08-19T04:01:39;98853.38;;;18.79;100.00
58598;BME280;60319;46.908;16.848;2022-08-19T04:06:40;98852.91;;;18.96;100.00
58598;BME280;60319;46.908;16.848;2022-08-19T04:11:43;98863.38;;;19.18;100.00
58598;BME280;60319;46.908;16.848;2022-08-19T04:16:45;98853.28;;;19.38;100.00
58598;BME280;60319;46.908;16.848;2022-08-19T04:21:50;98835.44;;;19.70;100.00
58598;BME280;60319;46.908;16.848;2022-08-19T04:26:51;98841.06;;;20.12;98.62
58598;BME280;60319;46.908;16.848;2022-08-19T04:31:53;98864.91;;;20.53;96.73
58598;BME280;60319;46.908;16.848;2022-08-19T04:36:56;98885.63;;;20.78;95.24
58598;BME280;60319;46.908;16.848;2022-08-19T04:41:57;98885.75;;;21.02;93.00
58598;BME280;60319;46.908;16.848;2022-08-19T04:47:16;98910.44;;;21.06;91.80
58598;BME280;60319;46.908;16.848;2022-08-19T04:52:17;98917.66;;;21.12;90.85
58598;BME280;60319;46.908;16.848;2022-08-19T04:57:17;98910.38;;;21.12;89.92
58598;BME280;60319;46.908;16.848;2022-08-19T05:02:18;98902.28;;;21.24;89.82
58598;BME280;60319;46.908;16.848;2022-08-19T05:07:18;98887.06;;;21.11;90.25
58598;BME280;60319;46.908;16.848;2022-08-19T05:12:19;98925.50;;;21.32;89.63
58598;BME280;60319;46.908;16.848;2022-08-19T05:17:20;98938.91;;;21.39;90.38
58598;BME280;60319;46.908;16.848;2022-08-19T05:22:20;98969.97;;;21.48;88.46
58598;BME280;60319;46.908;16.848;2022-08-19T05:27:35;98976.13;;;21.86;86.01
58598;BME280;60319;46.908;16.848;2022-08-19T05:32:36;98991.44;;;22.04;84.79
58598;BME280;60319;46.908;16.848;2022-08-19T05:37:37;98971.56;;;22.23;83.14
58598;BME280;60319;46.908;16.848;2022-08-19T05:42:40;98990.81;;;22.45;82.01
58598;BME280;60319;46.908;16.848;2022-08-19T05:47:40;99004.09;;;22.82;80.15
58598;BME280;60319;46.908;16.848;2022-08-19T05:52:41;99017.75;;;23.00;79.23
58598;BME280;60319;46.908;16.848;2022-08-19T05:57:41;99036.50;;;23.54;76.53
58598;BME280;60319;46.908;16.848;2022-08-19T06:02:41;99020.09;;;24.42;71.93
58598;BME280;60319;46.908;16.848;2022-08-19T06:07:42;99010.13;;;25.04;68.76
58598;BME280;60319;46.908;16.848;2022-08-19T06:12:42;99003.03;;;25.48;67.04
58598;BME280;60319;46.908;16.848;2022-08-19T06:17:43;98997.31;;;26.05;64.43
58598;BME280;60319;46.908;16.848;2022-08-19T06:22:48;99001.06;;;26.69;62.14
58598;BME280;60319;46.908;16.848;2022-08-19T06:27:51;98991.91;;;27.60;58.35
58598;BME280;60319;46.908;16.848;2022-08-19T06:32:53;98994.31;;;28.87;54.89
58598;BME280;60319;46.908;16.848;2022-08-19T06:37:53;98973.91;;;30.44;50.23
58598;BME280;60319;46.908;16.848;2022-08-19T06:42:53;98956.84;;;31.40;46.99
58598;BME280;60319;46.908;16.848;2022-08-19T06:47:56;98974.66;;;30.74;47.66
58598;BME280;60319;46.908;16.848;2022-08-19T06:52:56;98962.81;;;29.55;51.28
58598;BME280;60319;46.908;16.848;2022-08-19T06:57:57;98950.22;;;29.94;50.61
58598;BME280;60319;46.908;16.848;2022-08-19T07:02:57;98957.53;;;29.99;50.04
58598;BME280;60319;46.908;16.848;2022-08-19T07:07:58;98958.09;;;29.66;50.39
58598;BME280;60319;46.908;16.848;2022-08-19T07:12:59;98960.47;;;29.78;50.72
58598;BME280;60319;46.908;16.848;2022-08-19T07:17:59;98936.75;;;29.63;50.14
58598;BME280;60319;46.908;16.848;2022-08-19T07:23:00;98950.13;;;28.43;53.45
58598;BME280;60319;46.908;16.848;2022-08-19T07:28:00;98973.59;;;28.70;54.02
58598;BME280;60319;46.908;16.848;2022-08-19T07:33:01;98982.00;;;29.90;50.94
58598;BME280;60319;46.908;16.848;2022-08-19T07:38:01;98986.91;;;29.53;51.50
58598;BME280;60319;46.908;16.848;2022-08-19T07:43:03;99007.94;;;29.07;52.52
58598;BME280;60319;46.908;16.848;2022-08-19T07:48:03;99021.94;;;28.80;53.08
58598;BME280;60319;46.908;16.848;2022-08-19T07:53:04;99026.13;;;28.46;54.00
58598;BME280;60319;46.908;16.848;2022-08-19T07:58:04;99031.59;;;28.41;54.48
58598;BME280;60319;46.908;16.848;2022-08-19T08:03:05;99035.97;;;28.31;55.23
58598;BME280;60319;46.908;16.848;2022-08-19T08:08:05;99023.91;;;28.17;55.18
58598;BME280;60319;46.908;16.848;2022-08-19T08:13:25;98999.25;;;28.79;54.55
58598;BME280;60319;46.908;16.848;2022-08-19T08:18:25;99011.19;;;29.20;52.58
58598;BME280;60319;46.908;16.848;2022-08-19T08:23:26;99037.31;;;29.42;52.59
58598;BME280;60319;46.908;16.848;2022-08-19T08:28:27;99056.22;;;29.48;52.59
58598;BME280;60319;46.908;16.848;2022-08-19T08:33:28;99043.88;;;29.96;50.75
58598;BME280;60319;46.908;16.848;2022-08-19T08:38:31;99031.69;;;30.18;49.25
58598;BME280;60319;46.908;16.848;2022-08-19T08:43:35;99010.72;;;29.98;49.11
58598;BME280;60319;46.908;16.848;2022-08-19T08:54:00;98973.72;;;30.30;48.80
58598;BME280;60319;46.908;16.848;2022-08-19T08:59:05;98975.91;;;30.33;48.24
58598;BME280;60319;46.908;16.848;2022-08-19T09:04:11;98983.59;;;30.61;47.97
58598;BME280;60319;46.908;16.848;2022-08-19T09:25:10;99094.78;;;29.52;49.88
58598;BME280;60319;46.908;16.848;2022-08-19T09:30:15;99109.72;;;28.99;52.44
58598;BME280;60319;46.908;16.848;2022-08-19T09:35:16;99077.78;;;28.37;55.94
58598;BME280;60319;46.908;16.848;2022-08-19T09:40:17;99124.69;;;27.87;58.89
58598;BME280;60319;46.908;16.848;2022-08-19T09:45:20;99081.63;;;27.36;65.62
58598;BME280;60319;46.908;16.848;2022-08-19T09:50:22;99068.25;;;26.48;72.82
58598;BME280;60319;46.908;16.848;2022-08-19T09:55:25;99120.09;;;26.25;72.60
58598;BME280;60319;46.908;16.848;2022-08-19T10:00:25;99124.88;;;26.40;73.14
58598;BME280;60319;46.908;16.848;2022-08-19T10:05:27;99096.41;;;26.59;73.57
58598;BME280;60319;46.908;16.848;2022-08-19T10:10:48;99097.91;;;27.20;70.67
58598;BME280;60319;46.908;16.848;2022-08-19T10:15:49;99087.13;;;27.56;70.51
58598;BME280;60319;46.908;16.848;2022-08-19T10:21:04;99089.59;;;27.48;73.96
58598;BME280;60319;46.908;16.848;2022-08-19T10:26:08;99078.63;;;27.42;69.18
58598;BME280;60319;46.908;16.848;2022-08-19T10:31:12;99071.13;;;27.71;68.34
58598;BME280;60319;46.908;16.848;2022-08-19T10:36:16;99094.19;;;28.32;70.92
58598;BME280;60319;46.908;16.848;2022-08-19T10:41:22;99094.97;;;28.90;68.37
58598;BME280;60319;46.908;16.848;2022-08-19T10:46:25;99103.16;;;28.95;62.45
58598;BME280;60319;46.908;16.848;2022-08-19T10:51:26;99104.75;;;29.27;60.33
58598;BME280;60319;46.908;16.848;2022-08-19T10:56:45;99111.28;;;29.26;60.36
58598;BME280;60319;46.908;16.848;2022-08-19T11:01:53;99118.69;;;29.20;57.14
58598;BME280;60319;46.908;16.848;2022-08-19T11:06:53;99138.19;;;29.08;57.81
58598;BME280;60319;46.908;16.848;2022-08-19T11:11:54;99174.84;;;28.81;59.33
58598;BME280;60319;46.908;16.848;2022-08-19T11:16:56;99200.47;;;28.28;61.68
58598;BME280;60319;46.908;16.848;2022-08-19T11:21:57;99222.94;;;27.72;64.21
58598;BME280;60319;46.908;16.848;2022-08-19T11:27:06;99258.84;;;27.15;67.34
58598;BME280;60319;46.908;16.848;2022-08-19T11:32:09;99271.47;;;26.66;74.03
58598;BME280;60319;46.908;16.848;2022-08-19T11:37:10;99267.06;;;26.15;77.29
58598;BME280;60319;46.908;16.848;2022-08-19T11:42:10;99246.28;;;25.64;81.79
58598;BME280;60319;46.908;16.848;2022-08-19T11:47:30;99182.97;;;25.17;89.95
58598;BME280;60319;46.908;16.848;2022-08-19T11:52:30;99160.47;;;24.53;95.34
58598;BME280;60319;46.908;16.848;2022-08-19T11:57:31;99112.06;;;23.75;100.00
58598;BME280;60319;46.908;16.848;2022-08-19T12:02:32;99055.78;;;23.17;100.00
58598;BME280;60319;46.908;16.848;2022-08-19T12:07:33;99088.19;;;23.24;100.00
58598;BME280;60319;46.908;16.848;2022-08-19T12:12:34;99050.28;;;23.00;100.00
58598;BME280;60319;46.908;16.848;2022-08-19T12:17:34;99045.78;;;22.45;100.00
58598;BME280;60319;46.908;16.848;2022-08-19T12:22:36;99049.34;;;22.58;100.00
58598;BME280;60319;46.908;16.848;2022-08-19T12:27:37;99071.84;;;22.82;100.00
58598;BME280;60319;46.908;16.848;2022-08-19T12:32:39;99070.28;;;23.22;100.00
58598;BME280;60319;46.908;16.848;2022-08-19T12:37:39;99052.06;;;23.59;100.00
58598;BME280;60319;46.908;16.848;2022-08-19T12:42:42;99043.00;;;23.99;100.00
58598;BME280;60319;46.908;16.848;2022-08-19T12:47:43;99017.78;;;24.16;100.00
58598;BME280;60319;46.908;16.848;2022-08-19T12:52:43;99013.59;;;24.60;94.82
58598;BME280;60319;46.908;16.848;2022-08-19T12:57:44;99012.72;;;25.16;94.42
58598;BME280;60319;46.908;16.848;2022-08-19T13:02:46;99024.03;;;25.08;94.98
58598;BME280;60319;46.908;16.848;2022-08-19T13:07:51;99044.44;;;24.88;96.04
58598;BME280;60319;46.908;16.848;2022-08-19T13:12:52;99031.72;;;24.20;98.77
58598;BME280;60319;46.908;16.848;2022-08-19T13:17:53;99023.09;;;24.23;97.50
58598;BME280;60319;46.908;16.848;2022-08-19T13:22:55;99018.44;;;24.41;93.73
58598;BME280;60319;46.908;16.848;2022-08-19T13:27:57;99008.22;;;25.05;89.98
58598;BME280;60319;46.908;16.848;2022-08-19T13:32:57;99013.53;;;25.89;83.29
58598;BME280;60319;46.908;16.848;2022-08-19T13:38:18;99007.03;;;26.61;71.70
58598;BME280;60319;46.908;16.848;2022-08-19T13:43:25;99002.63;;;26.60;71.72
58598;BME280;60319;46.908;16.848;2022-08-19T13:48:26;98987.63;;;27.05;71.03
58598;BME280;60319;46.908;16.848;2022-08-19T13:53:26;98970.78;;;27.29;68.25
58598;BME280;60319;46.908;16.848;2022-08-19T13:58:27;98971.63;;;27.25;66.86
58598;BME280;60319;46.908;16.848;2022-08-19T14:03:27;98963.47;;;27.40;67.57
58598;BME280;60319;46.908;16.848;2022-08-19T14:08:29;98950.72;;;27.88;65.84
58598;BME280;60319;46.908;16.848;2022-08-19T14:13:32;98948.00;;;27.72;63.24
58598;BME280;60319;46.908;16.848;2022-08-19T14:18:34;98937.59;;;27.95;63.52
58598;BME280;60319;46.908;16.848;2022-08-19T14:23:34;98943.06;;;28.00;62.14
58598;BME280;60319;46.908;16.848;2022-08-19T14:28:36;98940.34;;;27.90;62.19
58598;BME280;60319;46.908;16.848;2022-08-19T14:33:36;98930.50;;;27.73;63.91
58598;BME280;60319;46.908;16.848;2022-08-19T14:38:37;98931.06;;;27.65;63.00
58598;BME280;60319;46.908;16.848;2022-08-19T14:43:37;98913.56;;;27.81;61.67
58598;BME280;60319;46.908;16.848;2022-08-19T14:48:38;98917.38;;;28.12;61.96
58598;BME280;60319;46.908;16.848;2022-08-19T14:53:39;98913.00;;;28.26;59.76
58598;BME280;60319;46.908;16.848;2022-08-19T14:58:41;98894.38;;;28.44;59.80
58598;BME280;60319;46.908;16.848;2022-08-19T15:03:41;98878.13;;;28.74;59.53
58598;BME280;60319;46.908;16.848;2022-08-19T15:08:42;98885.44;;;28.83;58.53
58598;BME280;60319;46.908;16.848;2022-08-19T15:13:47;98883.25;;;28.96;58.40
58598;BME280;60319;46.908;16.848;2022-08-19T15:18:53;98888.38;;;29.08;56.54
58598;BME280;60319;46.908;16.848;2022-08-19T15:23:56;98870.00;;;29.14;57.93
58598;BME280;60319;46.908;16.848;2022-08-19T15:28:57;98864.97;;;29.31;56.27
58598;BME280;60319;46.908;16.848;2022-08-19T15:33:59;98860.50;;;29.41;56.60
58598;BME280;60319;46.908;16.848;2022-08-19T15:38:59;98851.00;;;29.33;55.91
58598;BME280;60319;46.908;16.848;2022-08-19T15:44:06;98850.63;;;29.05;56.75
58598;BME280;60319;46.908;16.848;2022-08-19T15:49:10;98871.56;;;28.75;57.66
58598;BME280;60319;46.908;16.848;2022-08-19T15:54:14;98859.94;;;28.43;58.50
58598;BME280;60319;46.908;16.848;2022-08-19T15:59:15;98850.72;;;28.07;59.47
58598;BME280;60319;46.908;16.848;2022-08-19T16:04:34;98860.91;;;27.71;62.38
58598;BME280;60319;46.908;16.848;2022-08-19T16:09:57;98859.47;;;27.31;64.55
58598;BME280;60319;46.908;16.848;2022-08-19T16:14:58;98837.88;;;27.04;68.03
58598;BME280;60319;46.908;16.848;2022-08-19T16:19:58;98834.25;;;26.77;69.91
58598;BME280;60319;46.908;16.848;2022-08-19T16:24:59;98832.81;;;26.54;72.10
58598;BME280;60319;46.908;16.848;2022-08-19T16:30:00;98835.19;;;26.35;74.93
58598;BME280;60319;46.908;16.848;2022-08-19T16:35:04;98822.56;;;26.18;74.67
58598;BME280;60319;46.908;16.848;2022-08-19T16:40:06;98811.88;;;26.06;77.16
58598;BME280;60319;46.908;16.848;2022-08-19T16:45:08;98807.44;;;25.89;76.24
58598;BME280;60319;46.908;16.848;2022-08-19T16:50:09;98804.34;;;25.75;76.25
58598;BME280;60319;46.908;16.848;2022-08-19T16:55:09;98800.19;;;25.62;75.92
58598;BME280;60319;46.908;16.848;2022-08-19T17:00:10;98810.66;;;25.48;78.92
58598;BME280;60319;46.908;16.848;2022-08-19T17:05:12;98837.75;;;25.33;82.22
58598;BME280;60319;46.908;16.848;2022-08-19T17:10:14;98846.81;;;25.16;86.55
58598;BME280;60319;46.908;16.848;2022-08-19T17:15:14;98858.94;;;25.03;87.02
58598;BME280;60319;46.908;16.848;2022-08-19T17:20:15;98878.38;;;24.90;87.46
58598;BME280;60319;46.908;16.848;2022-08-19T17:25:15;98905.09;;;24.75;88.21
58598;BME280;60319;46.908;16.848;2022-08-19T17:30:17;98924.41;;;24.57;90.20
58598;BME280;60319;46.908;16.848;2022-08-19T17:35:18;98943.22;;;24.41;90.76
58598;BME280;60319;46.908;16.848;2022-08-19T17:40:20;98945.22;;;24.29;93.36
58598;BME280;60319;46.908;16.848;2022-08-19T17:45:21;98945.31;;;24.17;94.23
58598;BME280;60319;46.908;16.848;2022-08-19T17:50:22;98939.13;;;24.04;98.37
58598;BME280;60319;46.908;16.848;2022-08-19T17:55:23;98947.16;;;23.99;96.09
58598;BME280;60319;46.908;16.848;2022-08-19T18:00:25;98965.25;;;23.93;97.43
58598;BME280;60319;46.908;16.848;2022-08-19T18:05:28;98971.25;;;23.78;100.00
58598;BME280;60319;46.908;16.848;2022-08-19T18:10:30;98973.06;;;23.72;100.00
58598;BME280;60319;46.908;16.848;2022-08-19T18:15:31;98962.03;;;23.62;100.00
58598;BME280;60319;46.908;16.848;2022-08-19T18:20:32;98949.09;;;23.52;100.00
58598;BME280;60319;46.908;16.848;2022-08-19T18:25:33;98961.75;;;23.46;100.00
58598;BME280;60319;46.908;16.848;2022-08-19T18:30:34;98997.75;;;23.30;100.00
58598;BME280;60319;46.908;16.848;2022-08-19T18:35:36;99016.31;;;23.09;100.00
58598;BME280;60319;46.908;16.848;2022-08-19T18:40:38;99028.81;;;22.98;100.00
58598;BME280;60319;46.908;16.848;2022-08-19T18:45:57;99008.94;;;22.80;100.00
58598;BME280;60319;46.908;16.848;2022-08-19T18:51:17;99022.34;;;22.75;100.00
58598;BME280;60319;46.908;16.848;2022-08-19T18:56:18;99036.97;;;22.62;100.00
58598;BME280;60319;46.908;16.848;2022-08-19T19:01:31;99037.88;;;22.44;100.00
58598;BME280;60319;46.908;16.848;2022-08-19T19:06:34;99028.44;;;22.47;100.00
58598;BME280;60319;46.908;16.848;2022-08-19T19:11:41;99040.81;;;22.42;100.00
58598;BME280;60319;46.908;16.848;2022-08-19T19:16:45;99020.44;;;22.40;100.00
58598;BME280;60319;46.908;16.848;2022-08-19T19:21:47;99012.78;;;22.37;100.00
58598;BME280;60319;46.908;16.848;2022-08-19T19:26:51;99033.28;;;22.32;100.00
58598;BME280;60319;46.908;16.848;2022-08-19T19:31:52;99065.38;;;22.05;100.00
58598;BME280;60319;46.908;16.848;2022-08-19T19:36:55;99067.97;;;22.12;100.00
58598;BME280;60319;46.908;16.848;2022-08-19T19:41:56;99063.06;;;22.21;100.00
58598;BME280;60319;46.908;16.848;2022-08-19T19:46:56;99041.91;;;21.99;100.00
58598;BME280;60319;46.908;16.848;2022-08-19T19:51:59;99041.81;;;21.93;100.00
58598;BME280;60319;46.908;16.848;2022-08-19T19:56:59;99044.66;;;22.11;100.00
58598;BME280;60319;46.908;16.848;2022-08-19T20:02:00;99045.59;;;22.04;100.00
58598;BME280;60319;46.908;16.848;2022-08-19T20:07:00;99056.06;;;22.01;100.00
58598;BME280;60319;46.908;16.848;2022-08-19T20:12:03;99057.31;;;21.98;100.00
58598;BME280;60319;46.908;16.848;2022-08-19T20:17:04;99061.19;;;21.90;100.00
58598;BME280;60319;46.908;16.848;2022-08-19T20:22:05;99063.91;;;21.72;100.00
58598;BME280;60319;46.908;16.848;2022-08-19T20:27:06;99068.97;;;21.68;100.00
58598;BME280;60319;46.908;16.848;2022-08-19T20:32:07;99067.91;;;21.88;100.00
58598;BME280;60319;46.908;16.848;2022-08-19T20:37:08;99060.00;;;21.86;100.00
58598;BME280;60319;46.908;16.848;2022-08-19T20:42:09;99044.22;;;21.83;100.00
58598;BME280;60319;46.908;16.848;2022-08-19T20:47:10;99047.63;;;21.78;100.00
58598;BME280;60319;46.908;16.848;2022-08-19T20:52:10;99071.97;;;21.78;100.00
58598;BME280;60319;46.908;16.848;2022-08-19T20:57:11;99065.13;;;21.76;100.00
58598;BME280;60319;46.908;16.848;2022-08-19T21:02:11;99075.38;;;21.74;100.00
58598;BME280;60319;46.908;16.848;2022-08-19T21:07:13;99091.97;;;21.77;100.00
58598;BME280;60319;46.908;16.848;2022-08-19T21:12:14;99101.13;;;21.58;100.00
58598;BME280;60319;46.908;16.848;2022-08-19T21:17:14;99127.38;;;21.76;100.00
58598;BME280;60319;46.908;16.848;2022-08-19T21:22:15;99119.84;;;21.78;100.00
58598;BME280;60319;46.908;16.848;2022-08-19T21:27:15;99103.75;;;21.64;100.00
58598;BME280;60319;46.908;16.848;2022-08-19T21:32:18;99095.06;;;21.62;100.00
58598;BME280;60319;46.908;16.848;2022-08-19T21:37:18;99093.91;;;21.70;100.00
58598;BME280;60319;46.908;16.848;2022-08-19T21:42:20;99095.53;;;21.71;100.00
58598;BME280;60319;46.908;16.848;2022-08-19T21:47:21;99098.25;;;21.71;100.00
58598;BME280;60319;46.908;16.848;2022-08-19T21:52:22;99092.59;;;21.73;100.00
58598;BME280;60319;46.908;16.848;2022-08-19T21:57:24;99092.19;;;21.76;100.00
58598;BME280;60319;46.908;16.848;2022-08-19T22:02:25;99091.06;;;21.65;100.00
58598;BME280;60319;46.908;16.848;2022-08-19T22:07:27;99096.75;;;21.75;100.00
58598;BME280;60319;46.908;16.848;2022-08-19T22:12:31;99082.63;;;21.73;100.00
58598;BME280;60319;46.908;16.848;2022-08-19T22:17:32;99078.28;;;21.72;100.00
58598;BME280;60319;46.908;16.848;2022-08-19T22:22:33;99084.94;;;21.69;100.00
58598;BME280;60319;46.908;16.848;2022-08-19T22:27:34;99094.72;;;21.71;100.00
58598;BME280;60319;46.908;16.848;2022-08-19T22:32:35;99112.59;;;21.72;100.00
58598;BME280;60319;46.908;16.848;2022-08-19T22:37:36;99143.00;;;21.74;100.00
58598;BME280;60319;46.908;16.848;2022-08-19T22:42:38;99164.53;;;21.62;100.00
58598;BME280;60319;46.908;16.848;2022-08-19T22:47:38;99116.69;;;21.43;100.00
58598;BME280;60319;46.908;16.848;2022-08-19T22:52:39;99113.72;;;21.08;100.00
58598;BME280;60319;46.908;16.848;2022-08-19T22:57:42;99156.69;;;21.16;100.00
58598;BME280;60319;46.908;16.848;2022-08-19T23:02:43;99195.47;;;21.03;100.00
58598;BME280;60319;46.908;16.848;2022-08-19T23:07:43;99202.06;;;21.14;100.00
58598;BME280;60319;46.908;16.848;2022-08-19T23:12:46;99162.16;;;20.84;100.00
58598;BME280;60319;46.908;16.848;2022-08-19T23:17:47;99153.31;;;20.70;100.00
58598;BME280;60319;46.908;16.848;2022-08-19T23:22:48;99153.78;;;20.92;100.00
58598;BME280;60319;46.908;16.848;2022-08-19T23:27:50;99146.91;;;20.96;100.00
58598;BME280;60319;46.908;16.848;2022-08-19T23:33:27;99091.94;;;20.77;100.00
58598;BME280;60319;46.908;16.848;2022-08-19T23:38:29;99020.03;;;20.38;100.00
58598;BME280;60319;46.908;16.848;2022-08-19T23:43:32;98951.59;;;20.26;100.00
58598;BME280;60319;46.908;16.848;2022-08-19T23:48:34;98987.47;;;20.52;100.00
58598;BME280;60319;46.908;16.848;2022-08-19T23:53:36;99054.88;;;20.84;100.00
58598;BME280;60319;46.908;16.848;2022-08-19T23:58:37;99049.69;;;20.89;100.00
